Langdon, Kansas
Current Conditions -  °F | °C
As of 6:35 AM on Thursday 23 Oct 2014 (Local Time) from KPTT Reporting Station
Overcast Overcast  
Wind Chill: 59°   Ceiling: 3000
Heat Index: 59°   Visibility: 10mi
Dew Point: 55°   Wind: 7mph
Humidity: 88%   Direction: 180°S
Pressure: 30.09"   Gusts: NA
Location:  37.8171°N, 98.3602°W
Report Text: KPTT 231135Z AUTO 18006KT 10SM OVC030 15/13 A3009 RMK AO2
Loading
Personal Weather Stations






























Interactive Weather Map
Tropical Storm Tracking
New forecast layout! Learn more

10-Day Weather Forecast

Advertisements
Track Severe Weather on mobile